createdAt,value
2019-05-09T00:00:06.558Z,12.20
2019-05-09T00:02:39.558Z,12.65
2019-05-09T00:05:13.238Z,11.60
2019-05-09T00:07:44.371Z,13.20
2019-05-09T00:10:15.879Z,13.25
2019-05-09T00:12:47.144Z,13.60
2019-05-09T00:15:18.756Z,12.82
2019-05-09T00:17:50.020Z,13.10
2019-05-09T00:20:28.735Z,12.47
2019-05-09T00:23:00.016Z,12.68
2019-05-09T00:25:34.010Z,12.37
2019-05-09T00:28:05.731Z,11.73
2019-05-09T00:30:54.679Z,11.10
2019-05-09T00:33:28.693Z,9.75
2019-05-09T00:35:59.955Z,10.03
2019-05-09T00:38:45.217Z,8.73
2019-05-09T00:41:16.540Z,8.78
2019-05-09T00:43:54.350Z,7.97
2019-05-09T00:46:35.036Z,7.65
2019-05-09T00:49:08.554Z,7.30
2019-05-09T00:51:39.936Z,7.30
2019-05-09T00:54:13.352Z,6.25
2019-05-09T00:56:44.077Z,5.75
2019-05-09T00:59:15.377Z,5.45
2019-05-09T01:01:47.062Z,5.55
2019-05-09T01:04:18.357Z,5.30
2019-05-09T01:06:49.642Z,4.95
2019-05-09T01:09:20.946Z,4.47
2019-05-09T01:11:53.413Z,4.20
2019-05-09T01:14:24.812Z,4.22
2019-05-09T01:16:56.150Z,4.50
2019-05-09T01:19:27.441Z,4.17
2019-05-09T01:21:58.765Z,3.80
2019-05-09T01:24:29.984Z,4.10
2019-05-09T01:27:03.431Z,4.22
2019-05-09T01:29:34.242Z,3.60
2019-05-09T01:32:14.431Z,4.35
2019-05-09T01:34:45.100Z,4.10
2019-05-09T01:37:16.384Z,4.03
2019-05-09T01:39:47.677Z,3.98
2019-05-09T01:42:19.093Z,4.08
2019-05-09T01:44:50.447Z,4.17
2019-05-09T01:47:23.514Z,4.15
2019-05-09T01:49:54.603Z,3.90
2019-05-09T01:52:26.088Z,4.40
2019-05-09T01:54:57.381Z,4.20
2019-05-09T01:57:28.798Z,4.47
2019-05-09T02:00:00.101Z,4.37
2019-05-09T02:02:33.686Z,4.47
2019-05-09T02:05:04.439Z,4.10
2019-05-09T02:07:35.668Z,4.50
2019-05-09T02:10:07.043Z,5.42
2019-05-09T02:12:38.291Z,4.85
2019-05-09T02:15:24.618Z,4.70
2019-05-09T02:18:14.225Z,4.67
2019-05-09T02:20:45.532Z,4.65
2019-05-09T02:23:16.915Z,5.03
2019-05-09T02:25:48.258Z,4.47
2019-05-09T02:28:19.672Z,4.35
2019-05-09T02:30:50.909Z,4.53
2019-05-09T02:33:24.939Z,4.28
2019-05-09T02:35:58.288Z,4.28
2019-05-09T02:38:28.785Z,4.15
2019-05-09T02:41:01.248Z,4.22
2019-05-09T02:43:32.519Z,3.72
2019-05-09T02:46:13.454Z,3.92
2019-05-09T02:48:44.725Z,4.42
2019-05-09T02:51:18.465Z,4.00
2019-05-09T02:53:48.917Z,3.37
2019-05-09T02:56:20.215Z,3.52
2019-05-09T02:58:59.606Z,3.33
2019-05-09T03:01:49.472Z,3.40
2019-05-09T03:04:20.832Z,4.28
2019-05-09T03:06:52.066Z,3.40
2019-05-09T03:09:23.428Z,3.05
2019-05-09T03:11:54.749Z,2.95
2019-05-09T03:14:28.606Z,3.50
2019-05-09T03:16:59.084Z,3.22
2019-05-09T03:19:30.341Z,3.45
2019-05-09T03:22:08.766Z,3.22
2019-05-09T03:24:39.832Z,3.17
2019-05-09T03:27:18.752Z,4.00
2019-05-09T03:29:54.038Z,4.25
2019-05-09T03:32:25.319Z,4.22
2019-05-09T03:34:58.042Z,4.05
2019-05-09T03:37:29.401Z,4.37
2019-05-09T03:40:00.699Z,4.20
2019-05-09T03:42:41.974Z,4.45
2019-05-09T03:45:05.507Z,11.43
2019-05-09T03:47:50.065Z,4.83
2019-05-09T03:50:21.379Z,4.55
2019-05-09T03:52:52.596Z,4.97
2019-05-09T03:55:33.876Z,4.65
2019-05-09T03:58:09.889Z,4.70
2019-05-09T04:00:41.181Z,4.92
2019-05-09T04:03:12.443Z,5.03
2019-05-09T04:05:55.356Z,5.00
2019-05-09T04:08:18.196Z,5.55
2019-05-09T04:10:51.830Z,5.08
2019-05-09T04:13:28.396Z,5.40
2019-05-09T04:15:59.777Z,6.25
2019-05-09T04:18:30.997Z,5.85
2019-05-09T04:21:02.665Z,5.62
2019-05-09T04:23:33.902Z,20.05
2019-05-09T04:26:20.892Z,8.78
2019-05-09T04:28:52.137Z,6.30
2019-05-09T04:31:23.430Z,5.95
2019-05-09T04:33:54.643Z,6.80
2019-05-09T04:36:39.048Z,6.85
2019-05-09T04:39:21.039Z,6.35
2019-05-09T04:41:48.675Z,6.72
2019-05-09T04:44:34.249Z,8.90
2019-05-09T04:47:05.687Z,8.78
2019-05-09T04:49:41.073Z,6.75
2019-05-09T04:52:10.078Z,8.00
2019-05-09T04:54:41.351Z,8.30
2019-05-09T04:57:12.691Z,8.15
2019-05-09T04:59:43.941Z,8.58
2019-05-09T05:02:31.184Z,7.40
2019-05-09T05:05:02.416Z,6.95
2019-05-09T05:07:33.629Z,6.90
2019-05-09T05:10:08.763Z,6.95
2019-05-09T05:12:38.641Z,6.87
2019-05-09T05:15:10.717Z,6.50
2019-05-09T05:17:42.057Z,7.05
2019-05-09T05:20:18.582Z,6.80
2019-05-09T05:22:58.298Z,6.80
2019-05-09T05:25:30.586Z,6.67
2019-05-09T05:28:01.805Z,7.00
2019-05-09T05:30:33.166Z,6.58
2019-05-09T05:33:08.580Z,6.45
2019-05-09T05:35:42.879Z,6.62
2019-05-09T05:38:14.278Z,6.75
2019-05-09T05:40:47.639Z,7.00
2019-05-09T05:43:18.627Z,6.90
2019-05-09T05:45:58.311Z,6.72
2019-05-09T05:48:30.747Z,7.33
2019-05-09T05:51:02.065Z,6.67
2019-05-09T05:53:33.308Z,8.80
2019-05-09T05:56:04.624Z,7.25
2019-05-09T05:58:35.865Z,8.83
2019-05-09T06:01:08.255Z,9.07
2019-05-09T06:03:40.562Z,8.08
2019-05-09T06:06:11.815Z,7.10
2019-05-09T06:08:43.057Z,7.30
2019-05-09T06:11:14.282Z,6.85
2019-05-09T06:13:54.528Z,6.92
2019-05-09T06:16:22.177Z,7.45
2019-05-09T06:18:51.623Z,7.00
2019-05-09T06:21:22.854Z,7.17
2019-05-09T06:23:54.178Z,6.65
2019-05-09T06:26:25.473Z,7.30
2019-05-09T06:28:57.690Z,6.45
2019-05-09T06:31:29.216Z,8.00
2019-05-09T06:34:00.462Z,6.90
2019-05-09T06:36:31.706Z,6.75
2019-05-09T06:39:03.736Z,5.78
2019-05-09T06:41:37.779Z,5.80
2019-05-09T06:44:20.895Z,5.75
2019-05-09T06:46:58.728Z,5.35
2019-05-09T06:49:35.104Z,5.40
2019-05-09T06:52:08.544Z,4.87
2019-05-09T06:54:41.690Z,5.72
2019-05-09T06:57:12.509Z,5.37
2019-05-09T06:59:43.741Z,5.65
2019-05-09T07:02:47.908Z,5.15
2019-05-09T07:05:29.103Z,4.65
2019-05-09T07:08:15.694Z,4.90
2019-05-09T07:10:48.374Z,4.03
2019-05-09T07:13:19.740Z,3.98
2019-05-09T07:15:51.032Z,4.30
2019-05-09T07:18:23.129Z,4.05
2019-05-09T07:20:54.392Z,4.42
2019-05-09T07:23:28.062Z,3.75
2019-05-09T07:26:17.728Z,4.08
2019-05-09T07:28:49.407Z,3.30
2019-05-09T07:31:33.837Z,3.55
2019-05-09T07:34:27.625Z,3.30
2019-05-09T07:36:58.701Z,3.33
2019-05-09T07:39:29.940Z,3.02
2019-05-09T07:42:01.211Z,3.25
2019-05-09T07:44:45.231Z,3.00
2019-05-09T07:47:07.667Z,2.37
2019-05-09T07:49:40.031Z,2.90
2019-05-09T07:52:11.317Z,2.98
2019-05-09T07:54:42.620Z,2.98
2019-05-09T07:57:13.840Z,2.83
2019-05-09T07:59:45.140Z,3.20
2019-05-09T08:02:17.671Z,3.08
2019-05-09T08:04:49.219Z,2.98
2019-05-09T08:07:20.551Z,3.15
2019-05-09T08:09:51.885Z,3.20
2019-05-09T08:12:23.335Z,3.22
2019-05-09T08:15:07.599Z,2.67
2019-05-09T08:17:28.603Z,3.20
2019-05-09T08:20:00.044Z,2.90
2019-05-09T08:22:32.544Z,2.77
2019-05-09T08:25:04.127Z,2.62
2019-05-09T08:27:37.583Z,2.77
2019-05-09T08:30:09.283Z,3.10
2019-05-09T08:32:40.547Z,2.95
2019-05-09T08:35:11.902Z,2.90
2019-05-09T08:37:43.253Z,3.10
2019-05-09T08:40:14.666Z,2.70
2019-05-09T08:42:48.087Z,2.90
2019-05-09T08:45:27.849Z,2.70
2019-05-09T08:47:52.190Z,2.45
2019-05-09T08:50:51.277Z,2.22
2019-05-09T08:53:22.527Z,2.10
2019-05-09T08:55:53.845Z,2.45
2019-05-09T08:58:27.636Z,2.92
2019-05-09T09:01:03.861Z,2.72
2019-05-09T09:03:31.082Z,2.83
2019-05-09T09:06:02.455Z,2.70
2019-05-09T09:08:33.767Z,2.70
2019-05-09T09:11:05.068Z,2.42
2019-05-09T09:13:37.843Z,2.50
2019-05-09T09:16:18.385Z,2.42
2019-05-09T09:18:42.229Z,2.00
2019-05-09T09:21:13.532Z,2.40
2019-05-09T09:23:49.690Z,2.45
2019-05-09T09:26:18.421Z,2.67
2019-05-09T09:28:49.761Z,2.50
2019-05-09T09:31:21.017Z,2.62
2019-05-09T09:33:52.276Z,2.42
2019-05-09T09:36:23.603Z,2.90
2019-05-09T09:38:54.814Z,2.55
2019-05-09T09:41:28.529Z,3.12
2019-05-09T09:43:59.292Z,2.90
2019-05-09T09:46:30.587Z,2.70
2019-05-09T09:49:01.895Z,3.20
2019-05-09T09:51:33.194Z,2.90
2019-05-09T09:54:04.439Z,3.00
2019-05-09T09:56:38.414Z,3.08
2019-05-09T09:59:33.756Z,3.17
2019-05-09T10:02:09.987Z,2.85
2019-05-09T10:04:38.484Z,2.90
2019-05-09T10:07:09.817Z,2.85
2019-05-09T10:09:41.098Z,3.27
2019-05-09T10:12:12.389Z,3.10
2019-05-09T10:14:47.742Z,2.60
2019-05-09T10:17:38.762Z,2.65
2019-05-09T10:20:18.006Z,2.75
2019-05-09T10:22:58.789Z,2.10
2019-05-09T10:25:21.568Z,2.20
2019-05-09T10:27:52.846Z,2.30
2019-05-09T10:30:31.034Z,2.10
2019-05-09T10:33:02.333Z,2.45
2019-05-09T10:35:33.732Z,2.40
2019-05-09T10:38:08.459Z,2.35
2019-05-09T10:40:39.829Z,2.10
2019-05-09T10:43:34.639Z,2.12
2019-05-09T10:46:10.739Z,2.20
2019-05-09T10:48:43.642Z,2.10
2019-05-09T10:51:14.940Z,2.10
2019-05-09T10:53:48.166Z,2.17
2019-05-09T10:56:19.236Z,2.37
2019-05-09T10:58:50.602Z,1.75
2019-05-09T11:01:21.876Z,2.20
2019-05-09T11:03:53.195Z,2.02
2019-05-09T11:06:24.476Z,2.15
2019-05-09T11:08:58.132Z,2.20
2019-05-09T11:11:29.059Z,2.08
2019-05-09T11:14:00.452Z,1.92
2019-05-09T11:16:44.975Z,1.70
2019-05-09T11:19:04.735Z,1.95
2019-05-09T11:21:38.887Z,4.87
2019-05-09T11:24:10.157Z,2.77
2019-05-09T11:26:41.435Z,2.15
2019-05-09T11:29:12.712Z,1.85
2019-05-09T11:31:43.942Z,1.80
2019-05-09T11:34:18.633Z,1.87
2019-05-09T11:36:49.991Z,2.00
2019-05-09T11:39:35.589Z,2.05
2019-05-09T11:41:58.123Z,1.90
2019-05-09T11:44:28.438Z,1.87
2019-05-09T11:46:59.704Z,1.80
2019-05-09T11:49:30.975Z,1.95
2019-05-09T11:52:02.305Z,2.10
2019-05-09T11:54:33.579Z,1.90
2019-05-09T11:57:04.844Z,1.80
2019-05-09T11:59:37.990Z,1.80
2019-05-09T12:02:09.101Z,1.60
2019-05-09T12:04:41.560Z,1.98
2019-05-09T12:07:12.903Z,1.90
2019-05-09T12:09:44.373Z,1.62
2019-05-09T12:12:15.715Z,1.82
2019-05-09T12:14:48.370Z,1.90
2019-05-09T12:17:20.034Z,1.75
2019-05-09T12:19:51.315Z,2.22
2019-05-09T12:22:22.635Z,1.95
2019-05-09T12:24:54.259Z,1.95
2019-05-09T12:27:27.956Z,1.80
2019-05-09T12:29:58.663Z,1.95
2019-05-09T12:32:29.945Z,1.90
2019-05-09T12:35:01.412Z,1.92
2019-05-09T12:37:32.720Z,1.77
2019-05-09T12:40:04.297Z,1.70
2019-05-09T12:42:35.589Z,1.70
2019-05-09T12:45:08.336Z,1.87
2019-05-09T12:47:40.018Z,1.47
2019-05-09T12:50:11.367Z,1.70
2019-05-09T12:52:42.754Z,1.95
2019-05-09T12:55:14.206Z,1.70
2019-05-09T12:57:45.501Z,2.30
2019-05-09T13:00:18.650Z,1.92
2019-05-09T13:02:51.271Z,1.80
2019-05-09T13:05:22.684Z,1.77
2019-05-09T13:07:53.934Z,1.95
2019-05-09T13:10:25.257Z,1.82
2019-05-09T13:12:56.554Z,1.75
2019-05-09T13:15:38.245Z,1.70
2019-05-09T13:18:21.474Z,1.45
2019-05-09T13:20:41.426Z,1.52
2019-05-09T13:23:12.778Z,1.55
2019-05-09T13:25:44.139Z,1.67
2019-05-09T13:28:17.494Z,1.75
2019-05-09T13:30:48.926Z,1.70
2019-05-09T13:33:20.288Z,1.72
2019-05-09T13:35:51.579Z,1.55
2019-05-09T13:38:22.868Z,1.65
2019-05-09T13:40:54.216Z,1.70
2019-05-09T13:43:28.031Z,1.60
2019-05-09T13:45:58.865Z,1.60
2019-05-09T13:48:56.303Z,1.72
2019-05-09T13:51:03.083Z,1.52
2019-05-09T13:53:34.490Z,1.50
2019-05-09T13:56:08.378Z,2.55
2019-05-09T13:58:38.819Z,1.20
2019-05-09T14:01:10.057Z,1.47
2019-05-09T14:03:41.335Z,1.30
2019-05-09T14:06:12.679Z,1.30
2019-05-09T14:08:43.948Z,1.72
2019-05-09T14:11:15.249Z,1.20
2019-05-09T14:13:48.833Z,1.25
2019-05-09T14:16:22.268Z,1.30
2019-05-09T14:18:55.563Z,1.40
2019-05-09T14:21:25.470Z,2.00
2019-05-09T14:24:10.834Z,1.72
2019-05-09T14:26:29.758Z,1.92
2019-05-09T14:29:01.033Z,1.67
2019-05-09T14:31:32.754Z,1.42
2019-05-09T14:34:04.931Z,1.37
2019-05-09T14:36:39.112Z,1.30
2019-05-09T14:39:09.719Z,1.25
2019-05-09T14:41:41.051Z,1.42
2019-05-09T14:44:12.424Z,1.42
2019-05-09T14:46:43.646Z,2.00
2019-05-09T14:49:17.450Z,1.75
2019-05-09T14:51:50.047Z,1.60
2019-05-09T14:54:20.967Z,1.42
2019-05-09T14:56:53.072Z,1.42
2019-05-09T14:59:24.397Z,1.37
2019-05-09T15:01:58.883Z,1.55
2019-05-09T15:04:28.826Z,1.30
2019-05-09T15:07:01.237Z,1.12
2019-05-09T15:09:32.473Z,1.10
2019-05-09T15:12:03.791Z,1.25
2019-05-09T15:14:35.082Z,1.10
2019-05-09T15:17:08.710Z,1.42
2019-05-09T15:19:39.440Z,1.30
2019-05-09T15:22:10.692Z,1.80
2019-05-09T15:24:42.014Z,2.30
2019-05-09T15:27:13.482Z,1.62
2019-05-09T15:29:44.813Z,1.32
2019-05-09T15:32:18.319Z,1.10
2019-05-09T15:34:49.199Z,1.30
2019-05-09T15:37:22.507Z,1.12
2019-05-09T15:39:53.897Z,1.25
2019-05-09T15:42:25.167Z,1.30
2019-05-09T15:44:58.942Z,1.20
2019-05-09T15:47:34.700Z,1.20
2019-05-09T15:50:16.532Z,1.67
2019-05-09T15:52:39.526Z,1.37
2019-05-09T15:55:10.893Z,1.15
2019-05-09T15:57:42.275Z,1.20
2019-05-09T16:00:15.361Z,1.50
2019-05-09T16:02:48.558Z,1.57
2019-05-09T16:05:19.886Z,1.30
2019-05-09T16:07:51.259Z,1.30
2019-05-09T16:10:22.578Z,1.45
2019-05-09T16:12:53.862Z,1.45
2019-05-09T16:15:28.436Z,1.50
2019-05-09T16:17:59.373Z,1.67
2019-05-09T16:20:37.387Z,2.15
2019-05-09T16:23:03.846Z,1.42
2019-05-09T16:25:35.136Z,1.65
2019-05-09T16:28:08.059Z,1.92
2019-05-09T16:30:39.618Z,2.05
2019-05-09T16:33:11.010Z,1.70
2019-05-09T16:35:43.335Z,2.10
2019-05-09T16:38:14.622Z,2.08
2019-05-09T16:40:47.852Z,1.67
2019-05-09T16:43:18.963Z,2.72
2019-05-09T16:45:50.245Z,2.25
2019-05-09T16:48:21.548Z,4.08
2019-05-09T16:51:00.505Z,2.25
2019-05-09T16:53:27.804Z,2.95
2019-05-09T16:55:59.208Z,2.47
2019-05-09T16:58:30.551Z,1.92
2019-05-09T17:01:01.894Z,1.82
2019-05-09T17:03:33.202Z,1.70
2019-05-09T17:06:04.422Z,2.27
2019-05-09T17:08:35.685Z,1.80
2019-05-09T17:11:07.734Z,2.17
2019-05-09T17:13:39.360Z,2.40
2019-05-09T17:16:10.595Z,1.50
2019-05-09T17:18:42.187Z,1.70
2019-05-09T17:21:31.226Z,2.02
2019-05-09T17:24:03.651Z,1.52
2019-05-09T17:26:34.947Z,1.35
2019-05-09T17:29:06.263Z,1.27
2019-05-09T17:31:38.344Z,1.27
2019-05-09T17:34:10.827Z,1.25
2019-05-09T17:36:42.119Z,1.30
2019-05-09T17:39:13.433Z,1.30
2019-05-09T17:41:44.826Z,1.45
2019-05-09T17:44:18.443Z,1.42
2019-05-09T17:46:49.152Z,1.37
2019-05-09T17:49:20.414Z,1.22
2019-05-09T17:51:52.770Z,1.65
2019-05-09T17:54:24.023Z,1.47
2019-05-09T17:56:57.335Z,1.60
2019-05-09T17:59:29.437Z,1.80
2019-05-09T18:02:00.784Z,1.77
2019-05-09T18:04:32.150Z,1.50
2019-05-09T18:07:03.413Z,1.80
2019-05-09T18:09:34.805Z,2.08
2019-05-09T18:12:08.094Z,1.70
2019-05-09T18:14:38.966Z,1.72
2019-05-09T18:17:10.289Z,1.65
2019-05-09T18:19:41.552Z,1.67
2019-05-09T18:22:12.858Z,1.72
2019-05-09T18:24:44.130Z,1.50
2019-05-09T18:27:15.495Z,1.20
2019-05-09T18:29:47.439Z,1.80
2019-05-09T18:32:30.362Z,1.30
2019-05-09T18:35:09.466Z,1.32
2019-05-09T18:37:40.705Z,1.70
2019-05-09T18:40:14.018Z,1.57
2019-05-09T18:42:47.540Z,1.90
2019-05-09T18:45:18.870Z,1.60
2019-05-09T18:47:50.302Z,1.70
2019-05-09T18:50:21.687Z,1.50
2019-05-09T18:52:53.139Z,1.92
2019-05-09T18:55:25.469Z,1.60
2019-05-09T18:57:56.770Z,1.70
2019-05-09T19:00:28.437Z,1.50
2019-05-09T19:02:59.804Z,1.90
2019-05-09T19:05:31.139Z,1.70
2019-05-09T19:08:02.506Z,1.87
2019-05-09T19:10:33.963Z,2.33
2019-05-09T19:13:05.290Z,2.25
2019-05-09T19:15:50.204Z,2.20
2019-05-09T19:18:40.619Z,2.17
2019-05-09T19:21:15.988Z,2.00
2019-05-09T19:23:47.259Z,1.80
2019-05-09T19:26:37.281Z,1.90
2019-05-09T19:29:09.689Z,2.08
2019-05-09T19:31:41.154Z,2.08
2019-05-09T19:34:12.482Z,2.10
2019-05-09T19:36:43.975Z,2.30
2019-05-09T19:39:15.334Z,1.90
2019-05-09T19:41:46.779Z,9.63
2019-05-09T19:44:18.399Z,5.47
2019-05-09T19:46:49.754Z,3.02
2019-05-09T19:49:21.119Z,2.17
2019-05-09T19:51:52.428Z,2.30
2019-05-09T19:54:23.767Z,2.50
2019-05-09T19:56:55.142Z,2.50
2019-05-09T19:59:26.741Z,2.22
2019-05-09T20:01:58.147Z,2.22
2019-05-09T20:04:29.574Z,2.00
2019-05-09T20:07:01.986Z,2.10
2019-05-09T20:09:47.948Z,1.90
2019-05-09T20:12:38.203Z,2.40
2019-05-09T20:15:11.345Z,2.30
2019-05-09T20:17:42.731Z,5.90
2019-05-09T20:20:14.167Z,6.97
2019-05-09T20:22:52.846Z,3.50
2019-05-09T20:25:18.623Z,2.50
2019-05-09T20:27:49.971Z,2.33
2019-05-09T20:30:21.278Z,2.45
2019-05-09T20:32:52.551Z,2.35
2019-05-09T20:35:23.867Z,2.75
2019-05-09T20:37:55.481Z,2.70
2019-05-09T20:40:27.142Z,2.85
2019-05-09T20:42:58.725Z,2.75
2019-05-09T20:45:30.200Z,2.70
2019-05-09T20:48:01.717Z,2.58
2019-05-09T20:50:33.127Z,2.33
2019-05-09T20:53:09.444Z,2.50
2019-05-09T20:55:37.989Z,3.15
2019-05-09T20:58:09.599Z,3.42
2019-05-09T21:00:41.511Z,3.40
2019-05-09T21:03:13.203Z,3.50
2019-05-09T21:05:44.701Z,3.95
2019-05-09T21:08:16.153Z,4.03
2019-05-09T21:10:47.561Z,3.55
2019-05-09T21:13:19.036Z,3.90
2019-05-09T21:15:50.508Z,3.65
2019-05-09T21:18:22.059Z,3.55
2019-05-09T21:20:53.487Z,3.77
2019-05-09T21:23:25.242Z,4.10
2019-05-09T21:25:56.883Z,4.00
2019-05-09T21:28:28.556Z,4.50
2019-05-09T21:31:00.200Z,4.00
2019-05-09T21:33:31.735Z,3.70
2019-05-09T21:36:04.601Z,3.40
2019-05-09T21:38:35.932Z,3.87
2019-05-09T21:41:07.822Z,3.33
2019-05-09T21:43:39.154Z,3.22
2019-05-09T21:46:10.452Z,3.22
2019-05-09T21:48:41.713Z,3.60
2019-05-09T21:51:13.008Z,3.45
2019-05-09T21:53:44.356Z,3.72
2019-05-09T21:56:15.638Z,4.17
2019-05-09T21:58:47.035Z,3.77
2019-05-09T22:01:19.524Z,3.60
2019-05-09T22:03:51.936Z,3.77
2019-05-09T22:06:23.345Z,4.05
2019-05-09T22:08:54.734Z,3.75
2019-05-09T22:11:25.935Z,3.72
2019-05-09T22:13:57.298Z,3.80
2019-05-09T22:16:28.562Z,3.70
2019-05-09T22:18:59.814Z,4.03
2019-05-09T22:21:31.138Z,3.90
2019-05-09T22:24:02.412Z,3.72
2019-05-09T22:26:33.675Z,3.92
2019-05-09T22:29:04.975Z,3.90
2019-05-09T22:31:36.435Z,4.20
2019-05-09T22:34:07.696Z,4.10
2019-05-09T22:36:39.008Z,3.80
2019-05-09T22:39:10.342Z,3.60
2019-05-09T22:41:41.641Z,4.00
2019-05-09T22:44:13.004Z,3.98
2019-05-09T22:46:44.282Z,3.60
2019-05-09T22:49:15.516Z,3.62
2019-05-09T22:51:46.856Z,4.33
2019-05-09T22:54:18.156Z,4.00
2019-05-09T22:56:49.422Z,3.60
2019-05-09T22:59:20.775Z,4.08
2019-05-09T23:01:52.070Z,4.35
2019-05-09T23:04:23.281Z,4.10
2019-05-09T23:06:54.510Z,3.95
2019-05-09T23:09:25.885Z,4.15
2019-05-09T23:11:57.166Z,3.58
2019-05-09T23:14:28.388Z,3.80
2019-05-09T23:17:00.079Z,3.47
2019-05-09T23:19:31.492Z,3.87
2019-05-09T23:22:02.861Z,3.27
2019-05-09T23:24:34.917Z,3.77
2019-05-09T23:27:06.860Z,3.65
2019-05-09T23:29:38.092Z,3.55
2019-05-09T23:32:31.384Z,3.47
2019-05-09T23:35:03.022Z,3.27
2019-05-09T23:37:34.284Z,3.17
2019-05-09T23:40:07.467Z,3.37
2019-05-09T23:42:38.738Z,3.60
2019-05-09T23:45:09.999Z,3.52
2019-05-09T23:47:41.280Z,3.33
2019-05-09T23:50:12.578Z,3.40
2019-05-09T23:52:43.889Z,3.40
2019-05-09T23:55:32.646Z,3.47
2019-05-09T23:58:21.634Z,3.52
